createdAt,value
2023-04-03T00:00:35.605Z,82
2023-04-03T00:05:20.392Z,83
2023-04-03T00:10:26.166Z,83
2023-04-03T00:15:32.314Z,83
2023-04-03T00:20:21.423Z,83
2023-04-03T00:25:27.075Z,83
2023-04-03T00:30:33.360Z,84
2023-04-03T00:35:21.579Z,84
2023-04-03T00:40:27.809Z,83
2023-04-03T00:45:16.723Z,84
2023-04-03T00:50:22.772Z,84
2023-04-03T00:55:28.874Z,85
2023-04-03T01:00:18.822Z,85
2023-04-03T01:05:24.217Z,85
2023-04-03T01:10:30.537Z,86
2023-04-03T01:15:19.511Z,86
2023-04-03T01:20:26.790Z,86
2023-04-03T01:25:31.779Z,86
2023-04-03T01:30:21.015Z,87
2023-04-03T01:35:26.417Z,87
2023-04-03T01:40:31.975Z,87
2023-04-03T01:45:20.924Z,86
2023-04-03T01:50:26.981Z,85
2023-04-03T01:55:33.092Z,85
2023-04-03T02:00:25.995Z,85
2023-04-03T02:05:27.765Z,85
2023-04-03T02:10:16.802Z,85
2023-04-03T02:15:22.580Z,85
2023-04-03T02:20:28.661Z,86
2023-04-03T02:25:17.668Z,86
2023-04-03T02:30:23.715Z,86
2023-04-03T02:35:29.502Z,87
2023-04-03T02:40:19.626Z,87
2023-04-03T02:45:26.069Z,86
2023-04-03T02:50:30.628Z,86
2023-04-03T02:55:19.656Z,86
2023-04-03T03:00:25.749Z,86
2023-04-03T03:05:32.255Z,86
2023-04-03T03:10:21.239Z,87
2023-04-03T03:15:27.184Z,87
2023-04-03T03:20:33.074Z,87
2023-04-03T03:25:22.340Z,86
2023-04-03T03:30:28.224Z,86
2023-04-03T03:35:16.787Z,86
2023-04-03T03:40:23.211Z,86
2023-04-03T03:45:28.880Z,86
2023-04-03T03:50:18.056Z,86
2023-04-03T03:55:23.963Z,86
2023-04-03T04:00:33.492Z,86
2023-04-03T04:05:18.782Z,86
2023-04-03T04:10:24.629Z,86
2023-04-03T04:15:30.615Z,86
2023-04-03T04:20:21.068Z,86
2023-04-03T04:25:25.759Z,86
2023-04-03T04:30:31.624Z,86
2023-04-03T04:35:21.033Z,86
2023-04-03T04:40:27.780Z,86
2023-04-03T04:45:33.292Z,86
2023-04-03T04:50:22.339Z,85
2023-04-03T04:55:28.373Z,85
2023-04-03T05:00:18.743Z,85
2023-04-03T05:05:22.713Z,85
2023-04-03T05:10:28.849Z,85
2023-04-03T05:15:17.853Z,85
2023-04-03T05:20:25.348Z,85
2023-04-03T05:25:30.024Z,85
2023-04-03T05:30:19.042Z,85
2023-04-03T05:35:24.704Z,85
2023-04-03T05:40:30.823Z,84
2023-04-03T05:45:19.821Z,84
2023-04-03T05:50:25.912Z,84
2023-04-03T05:55:32.117Z,84
2023-04-03T06:00:25.528Z,84
2023-04-03T06:05:27.417Z,83
2023-04-03T06:10:33.408Z,83
2023-04-03T06:15:22.246Z,82
2023-04-03T06:20:28.472Z,82
2023-04-03T06:25:17.411Z,82
2023-04-03T06:30:23.427Z,82
2023-04-03T06:35:29.093Z,81
2023-04-03T06:40:18.502Z,81
2023-04-03T06:45:24.397Z,80
2023-04-03T06:50:30.403Z,80
2023-04-03T06:55:19.446Z,80
2023-04-03T07:00:25.701Z,80
2023-04-03T07:05:30.682Z,80
2023-04-03T07:10:19.693Z,80
2023-04-03T07:15:25.786Z,80
2023-04-03T07:20:31.942Z,80
2023-04-03T07:25:20.980Z,79
2023-04-03T07:30:26.960Z,79
2023-04-03T07:35:32.854Z,78
2023-04-03T07:40:23.296Z,75
2023-04-03T07:45:28.102Z,74
2023-04-03T07:50:19.679Z,72
2023-04-03T07:55:23.176Z,70
2023-04-03T08:00:32.801Z,69
2023-04-03T08:05:17.652Z,68
2023-04-03T08:10:23.649Z,66
2023-04-03T08:15:29.409Z,63
2023-04-03T08:20:18.896Z,63
2023-04-03T08:25:59.031Z,64
2023-04-03T08:30:30.749Z,60
2023-04-03T08:35:19.327Z,60
2023-04-03T08:40:26.658Z,60
2023-04-03T08:45:33.383Z,59
2023-04-03T08:50:20.611Z,57
2023-04-03T08:55:27.239Z,56
2023-04-03T09:20:33.807Z,54
2023-04-03T09:25:32.156Z,54
2023-04-03T09:30:20.385Z,52
2023-04-03T09:35:32.728Z,51
2023-04-03T09:40:33.237Z,52
2023-04-03T09:45:20.761Z,52
2023-04-03T09:50:26.687Z,52
2023-04-03T09:55:32.712Z,49
2023-04-03T10:00:24.139Z,47
2023-04-03T10:05:27.999Z,48
2023-04-03T10:10:17.119Z,49
2023-04-03T10:15:23.201Z,49
2023-04-03T10:20:30.818Z,46
2023-04-03T10:25:18.151Z,46
2023-04-03T10:30:24.249Z,46
2023-04-03T10:35:29.788Z,47
2023-04-03T10:40:19.882Z,44
2023-04-03T10:45:24.870Z,45
2023-04-03T10:50:30.961Z,45
2023-04-03T10:55:19.812Z,45
2023-04-03T11:00:26.725Z,45
2023-04-03T11:05:31.896Z,44
2023-04-03T11:10:21.511Z,43
2023-04-03T11:15:27.150Z,44
2023-04-03T11:20:33.138Z,42
2023-04-03T11:25:21.881Z,43
2023-04-03T11:30:28.084Z,43
2023-04-03T11:35:16.910Z,44
2023-04-03T11:40:23.169Z,44
2023-04-03T11:45:28.982Z,42
2023-04-03T11:50:18.024Z,42
2023-04-03T11:55:24.333Z,41
2023-04-03T12:00:35.085Z,41
2023-04-03T12:05:18.704Z,42
2023-04-03T12:10:32.146Z,40
2023-04-03T12:15:30.630Z,43
2023-04-03T12:20:21.086Z,44
2023-04-03T12:25:26.157Z,43
2023-04-03T12:30:32.002Z,42
2023-04-03T12:35:20.998Z,42
2023-04-03T12:40:28.413Z,44
2023-04-03T12:45:33.441Z,44
2023-04-03T12:50:22.444Z,42
2023-04-03T12:55:28.298Z,43
2023-04-03T13:00:18.126Z,42
2023-04-03T13:05:22.957Z,41
2023-04-03T13:10:29.235Z,42
2023-04-03T13:15:17.833Z,41
2023-04-03T13:20:24.154Z,42
2023-04-03T13:25:30.201Z,42
2023-04-03T13:30:19.246Z,43
2023-04-03T13:35:24.555Z,44
2023-04-03T13:40:38.036Z,44
2023-04-03T13:45:19.655Z,44
2023-04-03T13:50:25.765Z,43
2023-04-03T13:55:31.791Z,44
2023-04-03T14:00:21.557Z,44
2023-04-03T14:05:27.240Z,44
2023-04-03T14:10:33.235Z,45
2023-04-03T14:15:22.156Z,46
2023-04-03T14:20:29.025Z,45
2023-04-03T14:25:17.373Z,46
2023-04-03T14:30:23.512Z,46
2023-04-03T14:35:29.074Z,47
2023-04-03T14:40:19.258Z,47
2023-04-03T14:45:23.982Z,47
2023-04-03T14:50:32.261Z,48
2023-04-03T14:55:19.048Z,49
2023-04-03T15:00:26.593Z,48
2023-04-03T15:05:30.539Z,48
2023-04-03T15:10:19.494Z,49
2023-04-03T15:15:25.566Z,49
2023-04-03T15:20:31.828Z,49
2023-04-03T15:25:20.695Z,49
2023-04-03T15:30:26.745Z,50
2023-04-03T15:35:33.329Z,50
2023-04-03T15:40:23.430Z,50
2023-04-03T15:45:28.178Z,50
2023-04-03T15:50:17.203Z,51
2023-04-03T15:55:23.438Z,50
2023-04-03T16:00:35.386Z,51
2023-04-03T16:05:18.170Z,52
2023-04-03T16:10:23.868Z,52
2023-04-03T16:15:30.074Z,52
2023-04-03T16:20:20.323Z,52
2023-04-03T16:25:25.078Z,51
2023-04-03T16:30:31.166Z,51
2023-04-03T16:35:20.142Z,52
2023-04-03T16:40:25.638Z,52
2023-04-03T16:45:31.619Z,52
2023-04-03T16:50:20.638Z,52
2023-04-03T16:55:26.493Z,50
2023-04-03T17:00:34.726Z,50
2023-04-03T17:05:22.022Z,50
2023-04-03T17:10:28.022Z,51
2023-04-03T17:15:16.992Z,52
2023-04-03T17:20:24.337Z,53
2023-04-03T17:25:29.212Z,54
2023-04-03T17:30:18.052Z,54
2023-04-03T17:35:23.625Z,55
2023-04-03T17:40:29.627Z,56
2023-04-03T17:45:18.415Z,56
2023-04-03T17:50:24.745Z,57
2023-04-03T17:55:30.748Z,58
2023-04-03T18:00:21.943Z,58
2023-04-03T18:05:26.188Z,58
2023-04-03T18:10:32.213Z,58
2023-04-03T18:15:21.311Z,58
2023-04-03T18:20:28.194Z,58
2023-04-03T18:25:34.030Z,56
2023-04-03T18:30:22.323Z,55
2023-04-03T18:35:28.247Z,56
2023-04-03T18:40:17.672Z,57
2023-04-03T18:45:23.100Z,58
2023-04-03T18:50:29.426Z,58
2023-04-03T18:55:18.109Z,59
2023-04-03T19:00:25.499Z,59
2023-04-03T19:05:29.631Z,59
2023-04-03T19:10:18.849Z,59
2023-04-03T19:15:24.673Z,60
2023-04-03T19:20:31.017Z,60
2023-04-03T19:25:19.712Z,60
2023-04-03T19:30:25.948Z,61
2023-04-03T19:35:31.653Z,62
2023-04-03T19:40:22.055Z,62
2023-04-03T19:45:26.736Z,62
2023-04-03T19:50:32.740Z,62
2023-04-03T19:55:21.821Z,63
2023-04-03T20:00:33.182Z,63
2023-04-03T20:05:16.763Z,63
2023-04-03T20:10:22.781Z,64
2023-04-03T20:15:28.642Z,64
2023-04-03T20:20:17.956Z,64
2023-04-03T20:25:43.857Z,64
2023-04-03T20:30:29.823Z,65
2023-04-03T20:35:18.380Z,65
2023-04-03T20:40:25.691Z,65
2023-04-03T20:45:30.302Z,65
2023-04-03T20:50:19.415Z,65
2023-04-03T20:55:27.075Z,66
2023-04-03T21:00:31.684Z,65
2023-04-03T21:05:20.993Z,65
2023-04-03T21:10:27.071Z,64
2023-04-03T21:15:33.098Z,65
2023-04-03T21:20:23.541Z,66
2023-04-03T21:25:28.040Z,68
2023-04-03T21:30:17.245Z,68
2023-04-03T21:35:22.494Z,69
2023-04-03T21:40:28.558Z,69
2023-04-03T21:45:17.564Z,69
2023-04-03T21:50:23.689Z,69
2023-04-03T21:55:29.687Z,68
2023-04-03T22:00:23.902Z,67
2023-04-03T22:05:25.446Z,67
2023-04-03T22:10:31.577Z,67
2023-04-03T22:15:20.465Z,67
2023-04-03T22:20:29.197Z,67
2023-04-03T22:25:32.384Z,67
2023-04-03T22:30:21.545Z,68
2023-04-03T22:35:27.026Z,68
2023-04-03T22:40:33.366Z,68
2023-04-03T22:45:22.023Z,68
2023-04-03T22:50:28.149Z,68
2023-04-03T22:55:19.327Z,68
2023-04-03T23:00:23.838Z,68
2023-04-03T23:05:28.525Z,68
2023-04-03T23:10:17.599Z,68
2023-04-03T23:15:23.653Z,68
2023-04-03T23:20:29.751Z,69
2023-04-03T23:25:18.787Z,66
2023-04-03T23:30:24.833Z,65
2023-04-03T23:35:30.478Z,62
2023-04-03T23:40:19.472Z,62
2023-04-03T23:45:25.691Z,62
2023-04-03T23:50:31.798Z,63
2023-04-03T23:55:20.577Z,63
